createdAt,value
2022-11-14T00:02:10.986Z,43.03
2022-11-14T00:05:23.703Z,46.23
2022-11-14T00:08:35.069Z,43.80
2022-11-14T00:11:46.679Z,47.17
2022-11-14T00:14:58.224Z,48.83
2022-11-14T00:18:10.063Z,45.30
2022-11-14T00:21:21.045Z,48.97
2022-11-14T00:24:32.671Z,45.43
2022-11-14T00:27:43.780Z,46.77
2022-11-14T00:30:55.071Z,44.90
2022-11-14T00:34:06.349Z,45.33
2022-11-14T00:37:17.000Z,45.87
2022-11-14T00:40:27.703Z,49.10
2022-11-14T00:43:39.056Z,46.20
2022-11-14T00:46:50.219Z,57.50
2022-11-14T00:50:00.833Z,55.90
2022-11-14T00:53:12.466Z,54.80
2022-11-14T00:56:23.807Z,50.13
2022-11-14T00:59:35.313Z,52.47
2022-11-14T01:02:47.385Z,53.23
2022-11-14T01:05:58.749Z,57.63
2022-11-14T01:09:09.992Z,53.20
2022-11-14T01:12:21.071Z,53.33
2022-11-14T01:15:32.305Z,55.43
2022-11-14T01:18:44.506Z,58.60
2022-11-14T01:21:55.200Z,56.27
2022-11-14T01:25:07.191Z,56.73
2022-11-14T01:28:20.927Z,56.47
2022-11-14T01:31:32.695Z,57.03
2022-11-14T01:34:43.688Z,53.97
2022-11-14T01:37:54.577Z,55.10
2022-11-14T01:41:06.469Z,56.03
2022-11-14T01:44:39.668Z,49.83
2022-11-14T01:47:50.950Z,53.45
2022-11-14T01:51:07.144Z,49.70
2022-11-14T01:54:22.408Z,53.97
2022-11-14T01:57:35.856Z,52.33
2022-11-14T02:00:47.594Z,47.87
2022-11-14T02:04:03.397Z,51.27
2022-11-14T02:07:17.559Z,54.00
2022-11-14T02:10:28.561Z,51.90
2022-11-14T02:13:39.682Z,52.57
2022-11-14T02:17:14.362Z,53.73
2022-11-14T02:20:28.881Z,57.27
2022-11-14T02:23:40.517Z,54.77
2022-11-14T02:26:51.780Z,51.90
2022-11-14T02:30:12.294Z,52.77
2022-11-14T02:33:23.023Z,58.17
2022-11-14T02:36:34.340Z,57.40
2022-11-14T02:39:45.164Z,63.73
2022-11-14T02:42:56.414Z,59.53
2022-11-14T02:46:08.079Z,58.83
2022-11-14T02:49:19.064Z,56.43
2022-11-14T02:52:30.724Z,57.53
2022-11-14T02:55:42.149Z,65.23
2022-11-14T02:58:53.430Z,54.53
2022-11-14T03:02:04.684Z,59.70
2022-11-14T03:05:16.390Z,57.20
2022-11-14T03:08:27.467Z,59.80
2022-11-14T03:11:40.105Z,60.70
2022-11-14T03:14:51.480Z,61.57
2022-11-14T03:18:04.251Z,63.13
2022-11-14T03:21:17.079Z,64.20
2022-11-14T03:24:27.886Z,58.38
2022-11-14T03:27:38.896Z,57.50
2022-11-14T03:30:50.132Z,56.37
2022-11-14T03:34:01.166Z,53.95
2022-11-14T03:37:12.350Z,55.13
2022-11-14T03:40:23.409Z,55.17
2022-11-14T03:43:36.315Z,59.00
2022-11-14T03:46:47.877Z,54.03
2022-11-14T03:49:58.832Z,53.13
2022-11-14T03:53:09.816Z,54.80
2022-11-14T03:56:20.612Z,52.57
2022-11-14T03:59:31.735Z,54.73
2022-11-14T04:02:43.176Z,57.03
2022-11-14T04:05:54.743Z,58.83
2022-11-14T04:09:05.807Z,57.57
2022-11-14T04:12:16.599Z,55.30
2022-11-14T04:15:27.332Z,54.80
2022-11-14T04:18:38.767Z,53.83
2022-11-14T04:21:49.908Z,52.87
2022-11-14T04:25:00.936Z,53.53
2022-11-14T04:28:11.819Z,59.03
2022-11-14T04:31:25.290Z,53.43
2022-11-14T04:34:36.646Z,56.33
2022-11-14T04:37:47.982Z,56.53
2022-11-14T04:40:59.019Z,53.07
2022-11-14T04:44:10.259Z,54.27
2022-11-14T04:47:21.352Z,55.73
2022-11-14T04:50:32.811Z,52.27
2022-11-14T04:53:43.730Z,56.40
2022-11-14T04:56:54.991Z,52.20
2022-11-14T05:00:07.966Z,54.87
2022-11-14T05:03:18.556Z,56.67
2022-11-14T05:06:29.437Z,56.03
2022-11-14T05:09:40.927Z,55.53
2022-11-14T05:12:54.456Z,54.67
2022-11-14T05:16:06.757Z,57.70
2022-11-14T05:19:18.079Z,58.07
2022-11-14T05:22:30.292Z,57.47
2022-11-14T05:25:41.024Z,55.57
2022-11-14T05:28:51.893Z,63.03
2022-11-14T05:32:02.569Z,57.70
2022-11-14T05:35:14.757Z,58.70
2022-11-14T05:38:25.566Z,57.03
2022-11-14T05:41:36.643Z,60.03
2022-11-14T05:44:47.095Z,60.77
2022-11-14T05:47:58.369Z,60.00
2022-11-14T05:51:12.056Z,58.17
2022-11-14T05:54:22.767Z,53.47
2022-11-14T05:57:33.680Z,59.17
2022-11-14T06:00:51.986Z,58.30
2022-11-14T06:04:07.151Z,59.33
2022-11-14T06:07:20.413Z,61.63
2022-11-14T06:10:31.863Z,64.37
2022-11-14T06:13:43.846Z,63.87
2022-11-14T06:16:55.450Z,59.70
2022-11-14T06:20:10.349Z,57.00
2022-11-14T06:23:24.744Z,57.90
2022-11-14T06:26:36.735Z,58.83
2022-11-14T06:29:47.763Z,60.17
2022-11-14T06:33:02.047Z,61.57
2022-11-14T06:36:14.594Z,56.83
2022-11-14T06:42:36.782Z,57.57
2022-11-14T06:45:47.870Z,60.50
2022-11-14T06:49:00.167Z,55.43
2022-11-14T06:52:10.752Z,61.00
2022-11-14T06:55:25.295Z,57.80
2022-11-14T06:58:39.061Z,59.97
2022-11-14T07:04:59.054Z,58.57
2022-11-14T07:08:10.762Z,62.37
2022-11-14T07:11:24.031Z,60.27
2022-11-14T07:14:35.547Z,59.43
2022-11-14T07:17:46.420Z,60.67
2022-11-14T07:21:03.647Z,61.33
2022-11-14T07:24:14.419Z,64.07
2022-11-14T07:27:25.188Z,58.77
2022-11-14T07:30:36.515Z,63.45
2022-11-14T07:33:48.977Z,58.40
2022-11-14T07:36:59.905Z,64.40
2022-11-14T07:40:14.158Z,60.90
2022-11-14T07:43:26.080Z,63.03
2022-11-14T07:49:47.641Z,64.97
2022-11-14T07:52:59.333Z,62.13
2022-11-14T07:56:12.120Z,60.37
2022-11-14T07:59:23.132Z,63.15
2022-11-14T08:02:33.842Z,65.23
2022-11-14T08:05:52.247Z,62.97
2022-11-14T08:09:03.861Z,62.17
2022-11-14T08:12:15.243Z,59.93
2022-11-14T08:15:28.338Z,60.23
2022-11-14T08:18:39.583Z,64.13
2022-11-14T08:21:50.357Z,61.07
2022-11-14T08:25:01.378Z,55.00
2022-11-14T08:28:12.941Z,66.83
2022-11-14T08:31:25.137Z,61.97
2022-11-14T08:34:37.102Z,60.53
2022-11-14T08:37:48.184Z,58.37
2022-11-14T08:41:03.221Z,59.40
2022-11-14T08:44:13.757Z,56.47
2022-11-14T08:47:24.857Z,60.33
2022-11-14T08:50:37.016Z,63.17
2022-11-14T08:53:48.495Z,55.77
2022-11-14T08:56:59.526Z,53.27
2022-11-14T09:00:14.251Z,50.47
2022-11-14T09:03:25.442Z,53.13
2022-11-14T09:06:37.057Z,53.50
2022-11-14T09:09:48.489Z,47.30
2022-11-14T09:13:01.789Z,52.50
2022-11-14T09:16:15.230Z,55.03
2022-11-14T09:19:26.366Z,46.63
2022-11-14T09:22:37.196Z,49.17
2022-11-14T09:25:48.095Z,48.70
2022-11-14T09:28:58.500Z,50.10
2022-11-14T09:32:11.046Z,51.50
2022-11-14T09:35:22.576Z,50.43
2022-11-14T09:38:38.668Z,48.87
2022-11-14T09:42:02.470Z,48.70
2022-11-14T09:45:18.224Z,51.23
2022-11-14T09:48:32.618Z,50.20
2022-11-14T09:51:51.669Z,46.10
2022-11-14T09:55:12.175Z,47.90
2022-11-14T09:58:24.541Z,44.53
2022-11-14T10:01:46.498Z,47.88
2022-11-14T10:05:11.007Z,50.20
2022-11-14T10:08:43.494Z,45.73
2022-11-14T10:12:01.549Z,53.20
2022-11-14T10:15:33.583Z,46.53
2022-11-14T10:19:15.814Z,41.05
2022-11-14T10:22:42.650Z,46.67
2022-11-14T10:26:12.169Z,46.93
2022-11-14T10:29:52.526Z,44.47
2022-11-14T10:33:19.517Z,39.80
2022-11-14T10:36:46.722Z,42.10
2022-11-14T10:40:11.227Z,41.63
2022-11-14T10:43:27.716Z,40.17
2022-11-14T10:46:44.031Z,42.60
2022-11-14T10:49:57.488Z,40.77
2022-11-14T10:53:18.068Z,41.70
2022-11-14T10:56:28.940Z,40.73
2022-11-14T10:59:40.423Z,38.15
2022-11-14T11:02:56.928Z,45.40
2022-11-14T11:06:26.135Z,45.90
2022-11-14T11:09:59.743Z,42.77
2022-11-14T11:13:15.748Z,45.43
2022-11-14T11:16:29.177Z,41.97
2022-11-14T11:19:42.031Z,41.00
2022-11-14T11:23:03.587Z,41.33
2022-11-14T11:26:27.159Z,43.47
2022-11-14T11:29:38.519Z,45.63
2022-11-14T11:32:49.671Z,41.50
2022-11-14T11:36:04.060Z,42.10
2022-11-14T11:39:24.847Z,42.30
2022-11-14T11:43:31.684Z,42.97
2022-11-14T11:46:20.036Z,43.23
2022-11-14T11:49:42.991Z,40.13
2022-11-14T11:53:02.877Z,40.95
2022-11-14T11:56:17.843Z,41.63
2022-11-14T11:59:39.569Z,43.47
2022-11-14T12:02:54.176Z,40.17
2022-11-14T12:06:16.065Z,42.90
2022-11-14T12:10:03.510Z,40.20
2022-11-14T12:13:31.751Z,39.00
2022-11-14T12:17:13.098Z,42.17
2022-11-14T12:20:55.450Z,41.90
2022-11-14T12:24:35.769Z,41.53
2022-11-14T12:27:59.661Z,39.43
2022-11-14T12:31:17.061Z,40.60
2022-11-14T12:34:33.439Z,39.87
2022-11-14T12:37:55.290Z,41.90
2022-11-14T12:41:08.601Z,45.25
2022-11-14T12:44:33.668Z,37.15
2022-11-14T12:48:25.002Z,39.37
2022-11-14T12:51:55.718Z,37.03
2022-11-14T12:55:28.247Z,40.97
2022-11-14T12:59:12.395Z,41.10
2022-11-14T13:02:53.684Z,42.17
2022-11-14T13:06:09.381Z,41.83
2022-11-14T13:09:34.065Z,42.87
2022-11-14T13:13:15.457Z,38.90
2022-11-14T13:16:50.086Z,40.20
2022-11-14T13:20:19.597Z,41.33
2022-11-14T13:23:59.436Z,38.20
2022-11-14T13:27:52.203Z,38.90
2022-11-14T13:31:22.510Z,34.83
2022-11-14T13:34:52.177Z,38.17
2022-11-14T13:38:21.551Z,35.60
2022-11-14T13:41:58.431Z,38.80
2022-11-14T13:45:49.658Z,39.07
2022-11-14T13:49:15.146Z,39.77
2022-11-14T13:52:30.157Z,38.07
2022-11-14T13:55:58.055Z,36.93
2022-11-14T13:59:39.467Z,35.27
2022-11-14T14:03:15.915Z,37.03
2022-11-14T14:06:49.644Z,36.10
2022-11-14T14:10:10.692Z,37.90
2022-11-14T14:13:36.928Z,38.80
2022-11-14T14:16:55.278Z,37.80
2022-11-14T14:20:23.424Z,36.30
2022-11-14T14:23:44.766Z,35.60
2022-11-14T14:27:09.546Z,38.13
2022-11-14T14:30:23.238Z,37.43
2022-11-14T14:33:43.650Z,40.10
2022-11-14T14:36:56.062Z,40.33
2022-11-14T14:40:24.190Z,44.48
2022-11-14T14:43:36.700Z,48.80
2022-11-14T14:46:47.627Z,47.25
2022-11-14T14:49:59.519Z,43.87
2022-11-14T14:53:21.347Z,45.63
2022-11-14T14:56:33.047Z,47.70
2022-11-14T14:59:44.835Z,47.80
2022-11-14T15:02:57.156Z,49.40
2022-11-14T15:06:22.931Z,48.50
2022-11-14T15:09:33.839Z,47.73
2022-11-14T15:12:45.892Z,47.77
2022-11-14T15:15:58.132Z,47.03
2022-11-14T15:19:14.099Z,54.55
2022-11-14T15:22:29.282Z,47.33
2022-11-14T15:25:40.932Z,47.03
2022-11-14T15:28:52.954Z,46.18
2022-11-14T15:32:05.986Z,45.40
2022-11-14T15:35:29.628Z,44.55
2022-11-14T15:38:44.388Z,49.57
2022-11-14T15:42:15.325Z,48.20
2022-11-14T15:45:29.924Z,44.87
2022-11-14T15:48:44.684Z,53.87
2022-11-14T15:51:58.296Z,50.47
2022-11-14T15:55:17.898Z,46.83
2022-11-14T15:58:29.508Z,39.07
2022-11-14T16:01:41.105Z,37.80
2022-11-14T16:04:54.695Z,35.65
2022-11-14T16:08:06.420Z,35.43
2022-11-14T16:11:18.202Z,31.57
2022-11-14T16:14:30.508Z,30.77
2022-11-14T16:17:43.793Z,33.37
2022-11-14T16:24:04.228Z,33.07
2022-11-14T16:27:15.646Z,33.53
2022-11-14T16:30:28.424Z,30.53
2022-11-14T16:33:39.684Z,32.93
2022-11-14T16:36:51.981Z,28.33
2022-11-14T16:43:15.780Z,29.73
2022-11-14T16:46:28.962Z,34.73
2022-11-14T16:49:40.024Z,31.20
2022-11-14T16:52:51.429Z,33.07
2022-11-14T16:56:02.709Z,33.60
2022-11-14T16:59:14.814Z,34.80
2022-11-14T17:02:26.231Z,30.37
2022-11-14T17:05:43.243Z,33.20
2022-11-14T17:08:58.762Z,33.33
2022-11-14T17:12:10.446Z,29.80
2022-11-14T17:15:22.081Z,30.67
2022-11-14T17:18:38.437Z,32.37
2022-11-14T17:21:49.975Z,31.77
2022-11-14T17:25:01.433Z,29.67
2022-11-14T17:28:13.250Z,26.15
2022-11-14T17:31:24.229Z,28.90
2022-11-14T17:34:35.718Z,29.20
2022-11-14T17:37:46.649Z,29.27
2022-11-14T17:41:01.553Z,28.97
2022-11-14T17:44:13.015Z,26.00
2022-11-14T17:47:24.120Z,27.60
2022-11-14T17:50:37.812Z,27.80
2022-11-14T17:53:49.349Z,29.43
2022-11-14T17:57:01.235Z,30.20
2022-11-14T18:00:16.413Z,31.00
2022-11-14T18:03:28.479Z,30.83
2022-11-14T18:06:39.786Z,29.10
2022-11-14T18:09:51.498Z,31.70
2022-11-14T18:13:05.248Z,31.20
2022-11-14T18:16:18.295Z,33.07
2022-11-14T18:19:29.774Z,27.70
2022-11-14T18:22:42.118Z,29.37
2022-11-14T18:25:53.055Z,31.77
2022-11-14T18:29:05.341Z,29.03
2022-11-14T18:32:17.165Z,29.55
2022-11-14T18:35:28.600Z,26.37
2022-11-14T18:38:39.853Z,31.00
2022-11-14T18:41:50.718Z,28.73
2022-11-14T18:45:01.548Z,26.80
2022-11-14T18:48:12.868Z,30.07
2022-11-14T18:51:25.801Z,28.17
2022-11-14T18:54:37.035Z,26.23
2022-11-14T18:57:48.608Z,30.57
2022-11-14T19:00:59.310Z,28.97
2022-11-14T19:04:12.260Z,29.87
2022-11-14T19:07:25.080Z,29.17
2022-11-14T19:13:45.613Z,28.57
2022-11-14T19:16:57.513Z,29.45
2022-11-14T19:20:14.622Z,26.83
2022-11-14T19:23:26.440Z,30.77
2022-11-14T19:26:38.051Z,29.60
2022-11-14T19:29:50.596Z,30.67
2022-11-14T19:33:04.804Z,32.87
2022-11-14T19:36:27.829Z,34.03
2022-11-14T19:43:04.234Z,29.00
2022-11-14T19:46:17.306Z,30.13
2022-11-14T19:49:28.365Z,28.83
2022-11-14T19:52:38.817Z,33.90
2022-11-14T19:55:50.010Z,32.00
2022-11-14T19:59:02.842Z,30.73
2022-11-14T20:02:15.813Z,33.47
2022-11-14T20:05:27.663Z,30.63
2022-11-14T20:08:39.392Z,32.23
2022-11-14T20:11:51.029Z,30.05
2022-11-14T20:15:02.103Z,30.73
2022-11-14T20:18:13.457Z,30.50
2022-11-14T20:21:26.561Z,30.77
2022-11-14T20:27:46.872Z,31.13
2022-11-14T20:31:01.404Z,29.67
2022-11-14T20:34:13.076Z,28.40
2022-11-14T20:37:24.828Z,34.03
2022-11-14T20:40:37.743Z,30.20
2022-11-14T20:43:50.055Z,30.27
2022-11-14T20:47:01.096Z,32.57
2022-11-14T20:50:13.818Z,32.97
2022-11-14T20:53:25.742Z,31.57
2022-11-14T20:56:36.537Z,30.40
2022-11-14T20:59:47.957Z,31.60
2022-11-14T21:03:00.161Z,36.38
2022-11-14T21:06:12.677Z,31.00
2022-11-14T21:09:23.394Z,33.00
2022-11-14T21:12:34.609Z,33.97
2022-11-14T21:15:45.963Z,33.30
2022-11-14T21:18:58.275Z,33.50
2022-11-14T21:22:09.282Z,32.67
2022-11-14T21:25:20.875Z,34.23
2022-11-14T21:28:34.224Z,33.73
2022-11-14T21:31:47.381Z,32.65
2022-11-14T21:38:07.946Z,33.40
2022-11-14T21:41:19.932Z,30.83
2022-11-14T21:44:31.123Z,33.70
2022-11-14T21:47:42.207Z,34.50
2022-11-14T21:50:53.376Z,37.57
2022-11-14T21:54:06.647Z,35.87
2022-11-14T21:57:17.884Z,34.73
2022-11-14T22:00:28.766Z,34.03
2022-11-14T22:03:58.689Z,32.87
2022-11-14T22:07:11.151Z,35.53
2022-11-14T22:10:23.350Z,39.25
2022-11-14T22:13:35.519Z,34.90
2022-11-14T22:16:46.583Z,35.43
2022-11-14T22:19:57.761Z,37.47
2022-11-14T22:23:08.705Z,35.00
2022-11-14T22:26:19.777Z,35.17
2022-11-14T22:29:31.308Z,35.97
2022-11-14T22:32:43.091Z,33.57
2022-11-14T22:35:54.849Z,35.17
2022-11-14T22:39:07.213Z,35.73
2022-11-14T22:42:18.249Z,38.23
2022-11-14T22:45:29.247Z,36.43
2022-11-14T22:48:40.445Z,36.40
2022-11-14T22:51:51.615Z,32.70
2022-11-14T22:55:02.893Z,32.83
2022-11-14T22:58:14.379Z,33.53
2022-11-14T23:01:27.230Z,30.73
2022-11-14T23:04:37.971Z,32.15
2022-11-14T23:07:49.569Z,34.43
2022-11-14T23:11:07.047Z,35.47
2022-11-14T23:14:19.398Z,31.60
2022-11-14T23:17:30.532Z,33.70
2022-11-14T23:20:41.351Z,34.90
2022-11-14T23:23:57.749Z,34.73
2022-11-14T23:27:09.440Z,34.77
2022-11-14T23:30:20.882Z,32.40
2022-11-14T23:33:32.830Z,35.70
2022-11-14T23:36:48.180Z,32.93
2022-11-14T23:39:59.403Z,30.07
2022-11-14T23:43:10.594Z,34.90
2022-11-14T23:46:22.266Z,35.03
2022-11-14T23:49:34.148Z,35.23
2022-11-14T23:52:45.021Z,36.70
2022-11-14T23:56:00.680Z,35.87
2022-11-14T23:59:12.133Z,35.70
